Latest Coastal Weather Observations for Gabo Island (VIC)

IDN60701

Issued at 4:41 am EST Tuesday 28 June 2022 (issued every 10 minutes, with the page automatically refreshed every 10 minutes)

About coastal observations | Map of coastal stations | Coastal observations for NSW | Marine services | Other Formats
Station Details ID: 084016 Name: GABO ISLAND LIGHTHOUSE Lat: -37.57 Lon: 149.92 Height: 15.0 m
Data from the previous 72 hours. | See also: Recent months at Gabo Island (VIC)
Date/Time
EST
Wind Sea
Height
m
Swell Vis
km
Cloud Weather Temp
°C
Press
MSL
hPa
Rain since
9am
mm
Dir  Spd
kts
Gust
kts
Height
m
Period
s
Dir
28/04:30am W 10 13 - - - - - - - 7.5 1030.7 0.4
28/04:00am WNW 7 9 - - - - - - - 7.4 1030.6 0.4
28/03:30am WNW 9 10 - - - - - - - 7.5 1030.7 0.4
28/03:00am WNW 10 13 2 1.5 7 SW 25 Partly cloudy Fine 8.0 1030.8 0.4
28/02:30am WNW 9 11 - - - - - - - 7.6 1031.1 0.4
28/02:00am WNW 7 9 - - - - - - - 7.6 1031.1 0.4
28/01:30am WNW 8 11 - - - - - - - 7.7 1031.3 0.4
28/01:00am WNW 9 11 - - - - - - - 7.7 1031.4 0.4
28/12:30am WNW 10 13 - - - - - - - 8.2 1031.4 0.4
28/12:00am WNW 10 13 - - - - - - - 8.1 1031.7 0.4
 
Date/Time
EST
Wind Sea
Height
m
Swell Vis
km
Cloud Weather Temp
°C
Press
MSL
hPa
Rain since
9am
mm
Dir  Spd
kts
Gust
kts
Height
m
Period
s
Dir
27/11:30pm WNW 9 13 - - - - - - - 8.2 1031.7 0.4
27/11:00pm WNW 10 15 - - - - - - - 8.6 1031.9 0.4
27/10:30pm W 9 14 - - - - - - - 9.3 1031.9 0.4
27/10:00pm SW 19 21 - - - - - - - 11.7 1031.7 0.4
27/09:30pm SSW 17 21 - - - - - - - 11.9 1031.5 0.4
27/09:00pm SSW 19 23 2 1.5 7 SW 20 Partly cloudy Fine 11.9 1031.5 0.4
27/08:30pm SSW 18 22 - - - - - - - 12.0 1031.3 0.4
27/08:00pm SSW 20 24 - - - - - - - 11.7 1031.1 0.4
27/07:30pm SSW 19 23 - - - - - - - 11.7 1031.0 0.4
27/07:00pm SW 19 23 - - - - - - - 11.6 1030.7 0.4
27/06:30pm W 14 18 - - - - - - - 10.1 1030.6 0.4
27/06:00pm WSW 17 21 - - - - - - - 9.9 1030.4 0.4
27/05:30pm SW 19 25 - - - - - - - 11.1 1030.1 0.4
27/05:00pm SW 23 29 - - - - - - - 10.6 1029.8 0.2
27/04:58pm SW 24 30 - - - - - - - 10.4 1029.7 0.2
27/04:30pm WSW 23 31 - - - - - - - 10.5 1029.4 0.2
27/04:00pm SW 23 28 - - - - - - - 11.3 1029.0 0.2
27/03:30pm WSW 22 27 - - - - - - - 11.0 1028.9 0.2
27/03:00pm WSW 19 23 2 1.5 7 SW 25 Partly cloudy Fine 11.2 1028.7 0.2
27/02:30pm SW 22 27 - - - - - - - 12.1 1028.4 0.2
27/02:00pm SW 24 29 - - - - - - - 12.0 1028.3 0.2
27/01:30pm WSW 21 26 - - - - - - - 11.5 1028.4 0.2
27/01:00pm WSW 22 27 - - - - - - - 11.9 1028.2 0.2
27/12:30pm SW 22 28 - - - - - - - 12.0 1028.4 0.2
27/12:00pm WSW 25 30 - - - - - - - 11.4 1028.4 0.2
27/11:30am WSW 24 31 - - - - - - - 11.9 1028.3 0.2
27/11:00am WSW 21 30 - - - - - - - 11.2 1028.3 0.2
27/10:30am WSW 23 28 - - - - - - - 10.9 1028.5 0.2
27/10:00am WSW 21 26 - - - - - - - 10.2 1028.4 0.2
27/09:30am WSW 19 25 - - - - - - - 9.4 1028.4 0.0
27/09:00am WSW 22 29 2 1.5 7 S 20 Partly cloudy Fine 9.6 1028.3 1.8
27/08:30am W 22 27 - - - - - - - 9.1 1027.9 1.8
27/08:00am W 23 29 - - - - - - - 8.8 1027.7 1.8
27/07:30am W 20 27 - - - - - - - 8.6 1027.5 1.8
27/07:00am WSW 23 29 - - - - - - - 8.9 1027.2 1.2
27/06:30am WSW 23 31 - - - - - - - 8.9 1026.6 1.0
27/06:00am WSW 18 23 - - - - - - - 9.0 1026.6 1.0
27/05:30am WSW 21 28 - - - - - - - 9.1 1026.3 0.8
27/05:00am WSW 23 28 - - - - - - - 9.2 1026.2 0.0
27/04:30am WSW 21 28 - - - - - - - 9.2 1025.6 0.0
27/04:00am WSW 22 26 - - - - - - - 9.4 1025.6 0.0
27/03:30am WSW 22 27 - - - - - - - 9.9 1025.5 0.0
27/03:00am WSW 21 29 2 1.4 8 SE 25 Cloudy Fine 9.7 1025.5 0.0
27/02:30am WSW 22 28 - - - - - - - 10.0 1025.7 0.0
27/02:00am W 18 22 - - - - - - - 9.6 1025.5 0.0
27/01:30am W 15 19 - - - - - - - 9.8 1025.5 0.0
27/01:00am WSW 18 23 - - - - - - - 10.2 1025.8 0.0
27/12:30am W 17 21 - - - - - - - 10.3 1025.4 0.0
27/12:00am W 17 21 - - - - - - - 10.3 1025.4 0.0
 
Date/Time
EST
Wind Sea
Height
m
Swell Vis
km
Cloud Weather Temp
°C
Press
MSL
hPa
Rain since
9am
mm
Dir  Spd
kts
Gust
kts
Height
m
Period
s
Dir
26/11:30pm W 15 18 - - - - - - - 10.3 1025.5 0.0
26/11:00pm WSW 17 21 - - - - - - - 10.8 1025.4 0.0
26/10:30pm WSW 17 21 - - - - - - - 10.8 1025.2 0.0
26/10:00pm WSW 16 19 - - - - - - - 10.4 1025.1 0.0
26/09:30pm SW 21 25 - - - - - - - 10.7 1025.0 0.0
26/09:04pm SW 21 31 - - - - - - - 11.4 1024.9 0.0
26/09:00pm SW 21 24 1 1.2 8 SE 25 Cloudy Fine 11.6 1024.9 0.0
26/08:30pm WSW 18 22 - - - - - - - 11.6 1024.4 0.0
26/08:00pm W 16 19 - - - - - - - 11.5 1024.3 0.0
26/07:30pm W 13 16 - - - - - - - 11.6 1024.3 0.0
26/07:00pm WSW 12 16 - - - - - - - 11.8 1024.0 0.0
26/06:30pm WSW 12 16 - - - - - - - 12.2 1023.7 0.0
26/06:00pm WSW 13 16 - - - - - - - 12.3 1023.4 0.0
26/05:30pm SW 16 21 - - - - - - - 12.6 1023.0 0.0
26/05:00pm SW 17 20 - - - - - - - 12.8 1022.4 0.0
26/04:30pm SW 24 27 - - - - - - - 13.0 1021.9 0.0
26/04:00pm SW 23 27 - - - - - - - 13.3 1021.7 0.0
26/03:30pm SW 22 25 - - - - - - - 13.6 1021.5 0.0
26/03:00pm SW 19 23 - - - - - - - 14.5 1021.2 0.0
26/02:54pm SW 12 22 - - - - - - - 14.8 1021.2 0.0
26/02:30pm SW 8 9 - - - - - - - 15.3 1021.0 0.0
26/02:00pm WSW 9 11 - - - - - - - 15.9 1020.8 0.0
26/01:30pm W 10 13 - - - - - - - 16.8 1020.8 0.0
26/01:00pm WNW 10 14 - - - - - - - 17.6 1020.9 0.0
26/12:30pm WNW 7 11 - - - - - - - 16.9 1021.3 0.0
26/12:00pm WNW 8 13 - - - - - - - 16.7 1021.6 0.0
26/11:30am NW 10 15 - - - - - - - 16.1 1021.6 0.0
26/11:00am NW 10 13 - - - - - - - 15.2 1021.9 0.0
26/10:30am NW 11 16 - - - - - - - 14.7 1022.3 0.0
26/10:00am NW 11 15 - - - - - - - 14.4 1022.4 0.0
26/09:30am NW 9 14 - - - - - - - 13.3 1022.2 0.0
26/09:00am NW 9 14 1 1.0 8 SE 50 Mostly clear Fine 13.0 1022.1 0.0
26/08:30am NW 10 14 - - - - - - - 12.5 1022.0 0.0
26/08:00am NW 10 15 - - - - - - - 11.3 1021.7 0.0
26/07:30am NW 8 9 - - - - - - - 11.6 1021.2 0.0
26/07:00am NW 9 11 - - - - - - - 11.4 1021.2 0.0
26/06:30am NW 10 13 - - - - - - - 11.0 1021.1 0.0
26/06:00am NW 10 14 - - - - - - - 11.7 1021.0 0.0
26/05:30am NW 11 14 - - - - - - - 11.5 1020.5 0.0
26/05:00am NW 9 12 - - - - - - - 10.8 1020.5 0.0
26/04:30am NW 9 13 - - - - - - - 11.1 1020.3 0.0
26/04:00am NW 10 13 - - - - - - - 11.1 1020.3 0.0
26/03:30am NW 10 13 - - - - - - - 11.0 1020.6 0.0
26/03:00am NW 9 12 1 0.8 8 SE 40 Mostly clear Fine 11.0 1020.6 0.0
26/02:30am NW 9 12 - - - - - - - 10.9 1020.6 0.0
26/02:00am NW 9 12 - - - - - - - 11.2 1020.6 0.0
26/01:30am NW 9 12 - - - - - - - 11.1 1020.6 0.0
26/01:00am NW 7 9 - - - - - - - 10.8 1020.7 0.0
26/12:30am NW 9 11 - - - - - - - 11.0 1020.7 0.0
26/12:00am NW 9 10 - - - - - - - 10.6 1020.8 0.0
 
Date/Time
EST
Wind Sea
Height
m
Swell Vis
km
Cloud Weather Temp
°C
Press
MSL
hPa
Rain since
9am
mm
Dir  Spd
kts
Gust
kts
Height
m
Period
s
Dir
25/11:30pm NW 8 10 - - - - - - - 10.9 1020.9 0.0
25/11:00pm NW 9 11 - - - - - - - 11.1 1020.9 0.0
25/10:30pm NW 9 11 - - - - - - - 11.0 1020.6 0.0
25/10:00pm NNW 7 8 - - - - - - - 10.5 1020.7 0.0
25/09:30pm NNW 7 9 - - - - - - - 11.0 1020.7 0.0
25/09:00pm NNW 6 8 1 0.9 8 SE 35 Mostly clear Fine 10.8 1020.7 0.0
25/08:30pm N 5 7 - - - - - - - 9.7 1020.6 0.0
25/08:00pm NW 4 5 - - - - - - - 11.5 1020.6 0.0
25/07:30pm N 6 7 - - - - - - - 10.1 1020.6 0.0
25/07:00pm N 6 7 - - - - - - - 10.6 1020.5 0.0
25/06:30pm N 8 10 - - - - - - - 10.7 1020.1 0.0
25/06:00pm N 8 9 - - - - - - - 10.9 1019.8 0.0
25/05:30pm N 8 10 - - - - - - - 11.7 1019.5 0.0
25/05:00pm NNE 8 10 - - - - - - - 12.7 1019.3 0.0
25/04:30pm NNE 8 10 - - - - - - - 13.4 1019.3 0.0
25/04:00pm NNE 10 11 - - - - - - - 14.1 1019.1 0.0
25/03:30pm NE 7 9 - - - - - - - 14.7 1019.1 0.0
25/03:00pm SE 4 5 1 1.0 8 SE 50 Mostly clear Fine 15.6 1018.8 0.0
25/02:30pm S 3 4 - - - - - - - 15.8 1018.7 0.0
25/02:00pm CALM 0 0 - - - - - - - 16.5 1018.7 0.0
25/01:30pm SW 4 5 - - - - - - - 16.2 1018.9 0.0
25/01:00pm WSW 4 6 - - - - - - - 16.3 1019.1 0.0
25/12:30pm NW 5 8 - - - - - - - 16.5 1019.3 0.0
25/12:00pm NW 7 9 - - - - - - - 16.5 1019.4 0.0
25/11:30am NW 7 9 - - - - - - - 16.1 1019.5 0.0
25/11:00am NW 9 13 - - - - - - - 15.3 1019.7 0.0
25/10:30am NW 9 12 - - - - - - - 15.0 1019.8 0.0
25/10:00am NW 9 13 - - - - - - - 14.3 1019.8 0.0
25/09:30am NW 9 13 - - - - - - - 13.5 1019.4 0.0
25/09:00am NW 10 13 1 1.0 8 SE 50 Mostly clear Fine 12.9 1019.2 0.0
25/08:30am NW 9 11 - - - - - - - 11.7 1019.0 0.0
25/08:00am NW 9 13 - - - - - - - 11.0 1018.7 0.0
25/07:30am NW 9 11 - - - - - - - 10.3 1018.6 0.0
25/07:00am NW 8 12 - - - - - - - 10.4 1018.3 0.0
25/06:30am NW 8 10 - - - - - - - 10.1 1018.0 0.0
25/06:00am NW 9 11 - - - - - - - 9.9 1017.8 0.0
25/05:30am NW 5 8 - - - - - - - 9.2 1017.6 0.0
25/05:00am NW 5 6 - - - - - - - 9.7 1017.3 0.0

Other formats

Comma delimited format used in spreadsheet applications
http://www.bom.gov.au/fwo/IDN60701/IDN60701.94933.axf

JavaScript Object Notation format (JSON) in row-major order
http://www.bom.gov.au/fwo/IDN60701/IDN60701.94933.json

Data quality

Most of these data are generated automatically and are frequently updated. Quality checks on data are not normally performed. It is possible for incorrect values to appear. Refer to information at About Latest Weather Observations and please check the disclaimer before using these data.